Time;durP1;ratioP1;P1;durP2;ratioP2;P2;SDS_P1;SDS_P2;PMS_P1;PMS_P2;Temp;Humidity;BMP_temperature;BMP_pressure;BME280_temperature;BME280_humidity;BME280_pressure;Samples;Min_cycle;Max_cycle;Signal;HPM_P1;HPM_P2
2021/06/14 00:02:17;;;;;;;5.22;3.78;;;24.30;91.70;;;;;;5070000;28;20123;-47
2021/06/14 00:04:45;;;;;;;4.38;3.22;;;24.30;91.60;;;;;;5043738;28;20048;-47
2021/06/14 00:07:16;;;;;;;5.20;3.70;;;24.30;91.60;;;;;;5073381;28;20063;-48
2021/06/14 00:09:44;;;;;;;7.53;3.20;;;24.30;91.50;;;;;;5066246;28;20051;-46
2021/06/14 00:12:20;;;;;;;6.63;3.72;;;24.20;91.50;;;;;;5037751;28;20095;-49
2021/06/14 00:14:50;;;;;;;4.63;3.17;;;24.20;91.40;;;;;;5046044;28;20053;-46
2021/06/14 00:17:18;;;;;;;5.18;3.55;;;24.20;91.40;;;;;;5036178;28;20041;-47
2021/06/14 00:19:47;;;;;;;6.20;3.80;;;24.20;91.30;;;;;;5064737;28;20044;-46
2021/06/14 00:22:21;;;;;;;4.35;3.53;;;24.20;91.30;;;;;;5074770;28;20146;-47
2021/06/14 00:24:49;;;;;;;4.80;3.58;;;24.20;91.30;;;;;;5060934;28;20055;-51
2021/06/14 00:27:17;;;;;;;6.25;3.30;;;24.10;91.30;;;;;;5073297;28;20060;-46
2021/06/14 00:29:44;;;;;;;7.80;3.72;;;24.10;91.40;;;;;;5046887;28;20044;-47
2021/06/14 00:32:12;;;;;;;5.47;3.72;;;24.10;91.50;;;;;;5075020;28;20209;-47
2021/06/14 00:34:40;;;;;;;5.28;3.67;;;24.10;91.50;;;;;;5062924;28;20131;-46
2021/06/14 00:37:07;;;;;;;6.05;3.60;;;24.10;91.50;;;;;;5074288;28;20137;-46
2021/06/14 00:39:36;;;;;;;5.22;3.17;;;24.10;91.50;;;;;;5051004;28;20052;-46
2021/06/14 00:42:04;;;;;;;5.70;3.22;;;24.00;91.50;;;;;;5074465;28;20135;-47
2021/06/14 00:44:32;;;;;;;7.00;3.30;;;24.00;91.60;;;;;;5045372;28;20071;-46
2021/06/14 00:47:00;;;;;;;3.95;3.25;;;24.00;91.70;;;;;;5057383;28;20044;-45
2021/06/14 00:49:28;;;;;;;4.70;3.78;;;23.90;91.80;;;;;;5061620;28;20064;-45
2021/06/14 00:51:57;;;;;;;4.93;4.00;;;23.90;91.80;;;;;;5057884;28;20098;-46
2021/06/14 00:54:25;;;;;;;5.50;3.53;;;23.90;91.90;;;;;;5078492;28;20092;-45
2021/06/14 00:56:53;;;;;;;4.50;3.30;;;23.90;91.90;;;;;;5073812;28;20120;-45
2021/06/14 00:59:21;;;;;;;4.28;2.95;;;23.90;91.90;;;;;;5062021;28;20048;-45
2021/06/14 01:01:49;;;;;;;4.65;3.53;;;23.90;91.90;;;;;;5074180;28;20144;-45
2021/06/14 01:04:18;;;;;;;3.83;3.03;;;23.80;91.90;;;;;;5061805;28;20053;-46
2021/06/14 01:06:49;;;;;;;4.82;3.25;;;23.80;91.80;;;;;;5073428;28;20197;-45
2021/06/14 01:09:18;;;;;;;4.57;3.35;;;23.80;91.80;;;;;;5061526;28;20053;-45
2021/06/14 01:11:47;;;;;;;5.38;3.03;;;23.70;91.80;;;;;;5041165;28;20486;-45
2021/06/14 01:14:40;;;;;;;7.65;3.67;;;23.70;91.80;;;;;;5061489;28;20586;-46
2021/06/14 01:17:44;;;;;;;3.75;3.15;;;23.70;91.80;;;;;;5032290;28;20038;-45
2021/06/14 01:20:44;;;;;;;7.88;4.05;;;23.70;91.70;;;;;;5032156;28;20067;-46
2021/06/14 01:23:47;;;;;;;6.43;3.35;;;23.70;91.50;;;;;;5047674;28;20052;-48
2021/06/14 01:26:20;;;;;;;5.03;2.92;;;23.70;91.40;;;;;;5070362;28;20052;-45
2021/06/14 01:28:58;;;;;;;5.07;3.13;;;23.70;91.20;;;;;;5065060;28;20056;-45
2021/06/14 01:31:32;;;;;;;4.45;2.72;;;23.70;91.00;;;;;;5071411;28;20056;-46
2021/06/14 01:34:01;;;;;;;4.57;2.17;;;23.70;90.80;;;;;;5043350;28;20119;-45
2021/06/14 01:36:32;;;;;;;3.63;2.47;;;23.60;90.50;;;;;;5038727;28;20054;-45
2021/06/14 01:39:05;;;;;;;4.05;2.60;;;23.60;90.30;;;;;;5062539;28;20052;-45
2021/06/14 01:41:37;;;;;;;4.32;3.17;;;23.60;90.00;;;;;;5089273;28;20044;-46
2021/06/14 01:44:09;;;;;;;4.68;2.75;;;23.60;89.40;;;;;;5026000;28;20045;-46
2021/06/14 01:46:42;;;;;;;4.68;2.35;;;23.60;89.00;;;;;;5072884;28;20581;-46
2021/06/14 01:49:12;;;;;;;4.97;2.45;;;23.60;88.60;;;;;;5045071;28;20060;-46
2021/06/14 01:51:43;;;;;;;5.25;2.25;;;23.60;88.10;;;;;;5017440;28;20091;-46
2021/06/14 01:54:19;;;;;;;4.72;2.58;;;23.50;87.50;;;;;;5035458;28;20049;-46
2021/06/14 01:56:59;;;;;;;3.38;2.28;;;23.50;87.50;;;;;;5040716;28;20055;-47
2021/06/14 01:59:49;;;;;;;3.50;2.58;;;23.50;87.40;;;;;;5027303;28;20045;-45
2021/06/14 02:02:27;;;;;;;4.20;2.72;;;23.50;88.50;;;;;;5052720;28;20439;-46
2021/06/14 02:04:59;;;;;;;4.55;3.00;;;23.50;89.70;;;;;;5062672;28;20059;-45
2021/06/14 02:07:31;;;;;;;5.93;2.90;;;23.50;90.30;;;;;;5070133;28;20072;-45
2021/06/14 02:09:59;;;;;;;5.10;2.90;;;23.50;90.60;;;;;;5046704;28;20058;-46
2021/06/14 02:12:28;;;;;;;4.65;3.33;;;23.40;90.80;;;;;;5071023;28;20056;-45
2021/06/14 02:14:57;;;;;;;5.68;2.95;;;23.40;91.10;;;;;;5063315;28;20071;-46
2021/06/14 02:17:29;;;;;;;4.22;3.10;;;23.40;91.20;;;;;;5054476;28;20052;-46
2021/06/14 02:19:58;;;;;;;5.15;2.90;;;23.30;91.30;;;;;;5029761;28;20536;-47
2021/06/14 02:22:31;;;;;;;5.97;3.13;;;23.30;91.30;;;;;;5070966;28;20060;-45
2021/06/14 02:24:59;;;;;;;5.82;3.15;;;23.30;91.50;;;;;;5063751;28;20049;-48
2021/06/14 02:27:27;;;;;;;8.57;3.15;;;23.30;91.40;;;;;;5070557;28;20477;-47
2021/06/14 02:29:55;;;;;;;4.82;2.75;;;23.30;91.30;;;;;;5045461;28;20052;-45
2021/06/14 02:32:23;;;;;;;6.40;3.28;;;23.30;91.20;;;;;;5072069;28;20068;-46
2021/06/14 02:34:51;;;;;;;6.20;3.10;;;23.30;91.10;;;;;;5041638;28;20045;-46
2021/06/14 02:37:21;;;;;;;3.97;2.70;;;23.30;91.10;;;;;;5036375;28;20053;-47
2021/06/14 02:39:52;;;;;;;5.47;3.00;;;23.20;90.70;;;;;;5061043;28;20040;-45
2021/06/14 02:42:21;;;;;;;6.78;2.50;;;23.10;90.60;;;;;;5070783;28;20505;-45
2021/06/14 02:44:50;;;;;;;4.30;2.50;;;23.20;90.60;;;;;;5024360;28;20053;-49
2021/06/14 02:47:17;;;;;;;4.22;2.50;;;23.10;90.50;;;;;;5051841;28;20434;-46
2021/06/14 02:49:50;;;;;;;4.53;2.75;;;23.10;90.50;;;;;;5044817;28;20119;-45
2021/06/14 02:52:18;;;;;;;6.68;3.03;;;23.10;90.50;;;;;;5070798;28;20044;-46
2021/06/14 02:54:56;;;;;;;6.07;2.65;;;23.00;90.40;;;;;;5061080;28;20052;-46
2021/06/14 02:57:28;;;;;;;4.05;2.22;;;23.00;90.10;;;;;;5070615;28;20049;-50
2021/06/14 02:59:56;;;;;;;6.90;2.88;;;23.00;89.60;;;;;;5062794;28;20067;-45
2021/06/14 03:02:28;;;;;;;4.95;2.55;;;23.00;88.80;;;;;;5054239;28;21740;-46
2021/06/14 03:04:58;;;;;;;4.57;2.45;;;23.00;87.70;;;;;;5045435;28;20044;-49
2021/06/14 03:07:28;;;;;;;4.57;2.38;;;22.90;86.80;;;;;;5070316;28;20064;-50
2021/06/14 03:09:56;;;;;;;3.83;1.90;;;23.00;84.50;;;;;;5061853;28;20504;-45
2021/06/14 03:12:26;;;;;;;5.82;1.98;;;22.90;83.10;;;;;;5053911;28;20468;-49
2021/06/14 03:14:57;;;;;;;4.03;1.80;;;22.90;81.90;;;;;;5061678;28;20051;-45
2021/06/14 03:17:25;;;;;;;8.13;2.60;;;22.90;80.50;;;;;;5070293;28;20059;-46
2021/06/14 03:19:56;;;;;;;3.92;1.90;;;22.80;79.60;;;;;;5061395;28;20071;-47
2021/06/14 03:22:25;;;;;;;3.53;1.90;;;22.80;78.80;;;;;;5070438;28;20049;-48
2021/06/14 03:24:53;;;;;;;8.27;1.83;;;22.80;77.80;;;;;;5060741;28;20063;-47
2021/06/14 03:27:23;;;;;;;5.07;1.73;;;22.80;77.20;;;;;;5053694;28;20123;-46
2021/06/14 03:29:52;;;;;;;6.40;2.05;;;22.80;76.90;;;;;;5060155;28;20068;-46
2021/06/14 03:32:20;;;;;;;3.75;1.45;;;22.80;76.50;;;;;;5070462;28;20487;-46
2021/06/14 03:34:50;;;;;;;10.90;2.20;;;22.70;75.30;;;;;;5061530;28;20554;-45
2021/06/14 03:37:18;;;;;;;6.63;2.15;;;22.70;74.30;;;;;;5071293;28;20054;-46
2021/06/14 03:39:46;;;;;;;4.28;1.75;;;22.70;73.30;;;;;;5061342;28;20516;-46
2021/06/14 03:42:22;;;;;;;3.03;1.85;;;22.70;72.70;;;;;;5057327;28;20513;-46
2021/06/14 03:44:49;;;;;;;10.30;2.53;;;22.80;72.20;;;;;;5063251;28;20106;-49
2021/06/14 03:47:17;;;;;;;5.80;1.67;;;22.80;72.20;;;;;;5074065;28;20048;-46
2021/06/14 03:49:44;;;;;;;3.83;1.58;;;23.00;72.10;;;;;;5064124;28;20075;-45
2021/06/14 03:52:12;;;;;;;5.25;1.80;;;23.10;72.10;;;;;;5074382;28;20118;-47
2021/06/14 03:54:40;;;;;;;4.43;2.25;;;23.20;72.20;;;;;;5047194;28;20049;-46
2021/06/14 03:57:08;;;;;;;5.22;1.63;;;23.30;72.40;;;;;;5058474;28;20048;-45
2021/06/14 03:59:36;;;;;;;7.10;1.45;;;23.30;72.70;;;;;;5049642;28;20440;-46
2021/06/14 04:02:04;;;;;;;3.88;1.70;;;23.40;72.90;;;;;;5055101;28;20451;-45
2021/06/14 04:04:46;;;;;;;3.35;1.83;;;23.50;73.40;;;;;;5062283;28;20045;-48
2021/06/14 04:07:37;;;;;;;9.70;3.17;;;23.60;73.80;;;;;;5074833;28;20053;-45
2021/06/14 04:10:06;;;;;;;4.50;1.83;;;23.60;73.90;;;;;;5066049;28;20502;-46
2021/06/14 04:12:34;;;;;;;5.13;2.58;;;23.70;74.00;;;;;;5072041;28;20059;-45
2021/06/14 04:15:04;;;;;;;3.67;1.85;;;23.70;73.80;;;;;;5065418;28;20044;-46
2021/06/14 04:17:32;;;;;;;5.65;2.35;;;23.90;73.30;;;;;;5072204;28;20049;-48
2021/06/14 04:20:00;;;;;;;6.65;2.53;;;23.90;72.40;;;;;;5065027;28;20049;-45
2021/06/14 04:22:27;;;;;;;6.55;1.90;;;24.00;71.40;;;;;;5056498;28;20098;-46
2021/06/14 04:24:55;;;;;;;2.60;1.75;;;24.10;70.40;;;;;;5064205;28;20158;-45
2021/06/14 04:27:23;;;;;;;6.90;1.88;;;24.20;69.70;;;;;;5073191;28;20518;-46
2021/06/14 04:29:51;;;;;;;4.95;1.77;;;24.30;68.90;;;;;;5062084;28;20044;-47
2021/06/14 04:32:18;;;;;;;3.17;1.80;;;24.40;68.80;;;;;;5073197;28;20055;-46
2021/06/14 04:34:46;;;;;;;3.22;1.50;;;24.50;67.90;;;;;;5046961;28;20147;-48
2021/06/14 04:37:14;;;;;;;7.55;2.83;;;24.60;67.60;;;;;;5074700;28;20110;-46
2021/06/14 04:39:41;;;;;;;3.75;1.65;;;24.60;67.30;;;;;;5044411;28;20049;-45
2021/06/14 04:42:09;;;;;;;3.08;1.48;;;24.70;67.20;;;;;;5050453;28;20506;-49
2021/06/14 04:44:36;;;;;;;3.97;1.67;;;24.80;67.40;;;;;;5042788;28;20061;-46
2021/06/14 04:47:04;;;;;;;9.77;2.20;;;24.90;67.60;;;;;;5055391;28;20053;-46
2021/06/14 04:49:32;;;;;;;3.35;1.50;;;25.00;65.80;;;;;;5045292;28;20502;-46
2021/06/14 04:52:00;;;;;;;3.10;1.40;;;24.90;64.30;;;;;;5074219;28;20048;-46
2021/06/14 04:54:28;;;;;;;6.10;2.03;;;25.00;63.70;;;;;;5062758;28;20057;-46
2021/06/14 04:56:55;;;;;;;3.53;1.27;;;25.00;63.00;;;;;;5074928;28;20489;-46
2021/06/14 04:59:24;;;;;;;4.75;1.65;;;25.10;62.40;;;;;;5042239;28;20048;-46
2021/06/14 05:01:52;;;;;;;5.40;1.75;;;25.20;61.70;;;;;;5073931;28;20043;-46
2021/06/14 05:04:19;;;;;;;3.97;1.60;;;25.20;60.50;;;;;;5061896;28;20056;-47
2021/06/14 05:06:47;;;;;;;3.17;1.17;;;25.20;60.00;;;;;;5073907;28;20150;-49
2021/06/14 05:09:16;;;;;;;2.00;1.08;;;25.10;60.00;;;;;;5062535;28;20055;-46
2021/06/14 05:11:45;;;;;;;2.92;1.27;;;25.30;59.80;;;;;;5034074;28;20061;-49
2021/06/14 05:14:12;;;;;;;3.78;1.33;;;25.20;59.10;;;;;;5036858;28;20049;-47
2021/06/14 05:16:40;;;;;;;1.90;1.17;;;25.20;57.20;;;;;;5057161;28;20068;-46
2021/06/14 05:19:07;;;;;;;4.00;1.30;;;25.20;56.90;;;;;;5045701;28;20049;-45
2021/06/14 05:21:36;;;;;;;3.30;1.10;;;25.30;56.30;;;;;;5073967;28;20143;-47
2021/06/14 05:24:05;;;;;;;2.63;1.23;;;25.40;56.90;;;;;;5062945;28;20044;-45
2021/06/14 05:26:32;;;;;;;3.60;1.30;;;25.40;57.10;;;;;;5055622;28;20049;-45
2021/06/14 05:29:00;;;;;;;3.92;1.45;;;25.50;57.00;;;;;;5064184;28;20049;-45
2021/06/14 05:31:28;;;;;;;3.45;1.63;;;25.70;57.10;;;;;;5071640;28;20498;-46
2021/06/14 05:33:55;;;;;;;2.55;1.67;;;25.80;57.50;;;;;;5047639;28;20041;-46
2021/06/14 05:36:23;;;;;;;2.90;1.40;;;25.90;58.10;;;;;;5070946;28;20094;-45
2021/06/14 05:38:51;;;;;;;5.45;1.70;;;25.90;58.50;;;;;;5063954;28;20143;-46
2021/06/14 05:41:19;;;;;;;4.88;1.00;;;26.00;58.60;;;;;;5071089;28;20059;-46
2021/06/14 05:43:46;;;;;;;2.95;1.35;;;26.10;59.00;;;;;;5064689;28;20045;-45
2021/06/14 05:46:14;;;;;;;3.30;1.35;;;26.10;58.50;;;;;;5052988;28;20421;-45
2021/06/14 05:48:42;;;;;;;6.13;1.85;;;26.30;58.30;;;;;;5066702;28;20075;-47
2021/06/14 05:51:10;;;;;;;3.33;1.20;;;26.40;57.80;;;;;;5068634;28;20056;-46
2021/06/14 05:53:37;;;;;;;5.38;1.20;;;26.50;57.90;;;;;;5065946;28;20448;-49
2021/06/14 05:56:05;;;;;;;4.88;1.48;;;26.60;58.20;;;;;;5069037;28;20097;-47
2021/06/14 05:58:33;;;;;;;5.90;1.40;;;26.40;58.90;;;;;;5067707;28;20053;-50
2021/06/14 06:01:01;;;;;;;3.63;1.17;;;26.40;59.20;;;;;;5067439;28;20140;-50
2021/06/14 06:03:28;;;;;;;34.75;2.00;;;26.50;59.30;;;;;;5066511;28;20040;-46
2021/06/14 06:05:56;;;;;;;3.85;1.80;;;26.50;58.60;;;;;;5066727;28;20055;-46
2021/06/14 06:08:24;;;;;;;6.25;1.65;;;26.60;58.00;;;;;;5063368;28;20049;-48
2021/06/14 06:10:52;;;;;;;3.15;1.60;;;26.70;58.00;;;;;;5059474;28;20544;-45
2021/06/14 06:13:20;;;;;;;7.53;1.35;;;26.70;58.80;;;;;;5057484;28;20040;-44
2021/06/14 06:15:47;;;;;;;4.35;0.90;;;26.80;58.70;;;;;;5049031;28;20410;-43
2021/06/14 06:18:15;;;;;;;5.05;1.20;;;26.70;58.70;;;;;;5068256;28;20056;-45
2021/06/14 06:20:43;;;;;;;1.55;1.08;;;26.80;59.00;;;;;;5064057;28;20052;-44
2021/06/14 06:23:10;;;;;;;5.25;1.55;;;27.00;58.00;;;;;;5051654;28;20448;-44
2021/06/14 06:25:38;;;;;;;7.13;1.30;;;27.00;58.60;;;;;;5037946;28;20055;-45
2021/06/14 06:28:06;;;;;;;3.90;1.25;;;27.10;58.90;;;;;;5068157;28;20064;-44
2021/06/14 06:30:37;;;;;;;5.80;1.83;;;27.20;59.20;;;;;;5062992;28;20040;-45
2021/06/14 06:33:08;;;;;;;2.92;1.75;;;27.30;58.70;;;;;;5051494;28;20044;-45
2021/06/14 06:35:37;;;;;;;3.30;1.48;;;27.10;58.20;;;;;;5063939;28;20055;-43
2021/06/14 06:38:05;;;;;;;4.55;2.10;;;27.20;58.20;;;;;;5068098;28;20391;-43
2021/06/14 06:40:33;;;;;;;15.45;2.42;;;27.20;57.70;;;;;;5063184;28;20139;-44
2021/06/14 06:43:00;;;;;;;7.35;1.67;;;27.20;58.40;;;;;;5069207;28;20048;-43
2021/06/14 06:45:28;;;;;;;5.53;2.10;;;27.20;59.40;;;;;;5062866;28;20049;-45
2021/06/14 06:47:56;;;;;;;4.03;1.35;;;27.20;59.80;;;;;;5069528;28;20106;-43
2021/06/14 06:50:24;;;;;;;3.65;1.60;;;27.20;60.20;;;;;;5029706;28;20360;-43
2021/06/14 06:52:52;;;;;;;3.50;1.65;;;27.30;60.10;;;;;;5051391;28;20040;-44
2021/06/14 06:55:20;;;;;;;5.35;1.55;;;27.50;59.40;;;;;;5060452;28;20061;-44
2021/06/14 06:57:47;;;;;;;4.55;1.58;;;27.70;59.00;;;;;;5053637;28;20487;-45
2021/06/14 07:00:18;;;;;;;4.95;1.67;;;27.60;57.40;;;;;;5062634;28;20110;-44
2021/06/14 07:02:46;;;;;;;3.25;1.48;;;27.70;56.10;;;;;;5051455;28;20483;-45
2021/06/14 07:05:25;;;;;;;3.88;2.00;;;27.50;56.90;;;;;;5062600;28;20052;-47
2021/06/14 07:07:52;;;;;;;3.65;1.58;;;27.40;56.40;;;;;;5032612;28;20393;-43
2021/06/14 07:10:20;;;;;;;3.90;1.50;;;27.40;56.60;;;;;;5062506;28;20195;-44
2021/06/14 07:12:55;;;;;;;2.78;1.90;;;27.40;57.40;;;;;;5049456;28;20060;-43
2021/06/14 07:15:22;;;;;;;5.70;2.10;;;27.50;57.40;;;;;;5064067;28;20082;-45
2021/06/14 07:17:50;;;;;;;3.65;1.73;;;27.50;57.90;;;;;;5072100;28;20049;-44
2021/06/14 07:20:18;;;;;;;3.05;1.98;;;27.60;58.00;;;;;;5067468;28;20048;-44
2021/06/14 07:22:46;;;;;;;4.63;1.77;;;27.70;58.20;;;;;;5071927;28;20065;-44
2021/06/14 07:25:14;;;;;;;8.80;2.78;;;27.70;56.50;;;;;;5067791;28;20571;-44
2021/06/14 07:27:43;;;;;;;4.00;2.10;;;27.80;55.20;;;;;;5071653;28;20044;-46
2021/06/14 07:30:15;;;;;;;5.47;2.80;;;27.80;54.90;;;;;;5050282;28;20127;-44
2021/06/14 07:32:43;;;;;;;4.95;1.92;;;27.90;54.90;;;;;;5071763;28;20041;-46
2021/06/14 07:35:11;;;;;;;4.97;2.28;;;28.00;54.10;;;;;;5049616;28;20049;-45
2021/06/14 07:37:39;;;;;;;2.97;2.08;;;27.80;53.70;;;;;;5071579;28;20041;-44
2021/06/14 07:40:08;;;;;;;3.53;2.42;;;27.90;54.10;;;;;;5056540;28;20041;-44
2021/06/14 07:42:36;;;;;;;4.20;1.92;;;27.80;54.80;;;;;;5055471;28;20095;-45
2021/06/14 07:45:05;;;;;;;5.60;1.90;;;27.90;55.00;;;;;;5065681;28;20076;-45
2021/06/14 07:47:32;;;;;;;7.28;2.33;;;27.80;55.40;;;;;;5056088;28;20384;-44
2021/06/14 07:50:00;;;;;;;3.92;2.28;;;27.90;55.60;;;;;;5065471;28;20048;-45
2021/06/14 07:52:28;;;;;;;3.65;1.83;;;28.10;55.40;;;;;;5074512;28;20056;-45
2021/06/14 07:54:56;;;;;;;3.67;2.03;;;28.20;55.30;;;;;;5064615;28;20076;-46
2021/06/14 07:57:23;;;;;;;4.53;2.15;;;28.40;55.10;;;;;;5073171;28;20127;-45
2021/06/14 07:59:51;;;;;;;3.97;1.92;;;28.60;55.00;;;;;;5060562;28;20371;-46
2021/06/14 08:02:19;;;;;;;3.15;1.80;;;28.70;53.40;;;;;;5054658;28;20495;-46
2021/06/14 08:04:46;;;;;;;2.67;1.88;;;28.70;52.70;;;;;;5063281;28;20492;-44
2021/06/14 08:07:14;;;;;;;2.20;1.73;;;28.80;53.50;;;;;;5073547;28;20410;-47
2021/06/14 08:09:43;;;;;;;4.75;1.25;;;28.50;53.00;;;;;;5065700;28;20127;-44
2021/06/14 08:12:11;;;;;;;4.18;1.55;;;28.20;54.20;;;;;;5054177;28;20062;-45
2021/06/14 08:14:39;;;;;;;3.63;1.52;;;28.10;55.20;;;;;;5062856;28;20044;-44
2021/06/14 08:17:07;;;;;;;4.95;1.70;;;28.20;56.40;;;;;;5074000;28;20044;-45
2021/06/14 08:19:45;;;;;;;3.78;1.70;;;28.10;57.20;;;;;;5065656;28;20047;-48
2021/06/14 08:22:37;;;;;;;2.47;1.85;;;28.20;55.50;;;;;;5054118;28;20060;-45
2021/06/14 08:25:09;;;;;;;6.38;1.73;;;28.30;54.60;;;;;;5081759;28;20516;-44
2021/06/14 08:27:42;;;;;;;4.85;2.03;;;28.20;54.20;;;;;;5087265;28;20047;-44
2021/06/14 08:30:13;;;;;;;3.35;1.63;;;28.10;54.50;;;;;;5060434;28;20056;-44
2021/06/14 08:32:41;;;;;;;5.03;1.67;;;28.10;55.00;;;;;;5054980;28;20447;-44
2021/06/14 08:35:13;;;;;;;5.45;2.17;;;28.10;54.70;;;;;;5064724;28;20055;-44
2021/06/14 08:37:43;;;;;;;2.55;1.25;;;28.10;54.20;;;;;;5070486;28;20056;-45
2021/06/14 08:40:14;;;;;;;2.97;1.42;;;28.00;55.20;;;;;;5031960;28;20049;-44
2021/06/14 08:42:43;;;;;;;3.28;1.48;;;28.10;54.60;;;;;;5071525;28;20127;-44
2021/06/14 08:45:13;;;;;;;4.10;1.70;;;28.20;54.80;;;;;;5064562;28;20052;-46
2021/06/14 08:47:43;;;;;;;6.18;1.80;;;28.40;54.80;;;;;;5036996;28;20564;-46
2021/06/14 08:50:14;;;;;;;4.03;1.90;;;28.40;54.40;;;;;;5064788;28;20053;-46
2021/06/14 08:52:43;;;;;;;4.38;2.40;;;28.40;54.50;;;;;;5053552;28;20052;-44
2021/06/14 08:55:13;;;;;;;3.90;1.85;;;28.40;54.20;;;;;;5065736;28;20503;-45
2021/06/14 08:57:41;;;;;;;17.17;2.80;;;28.40;53.60;;;;;;5071178;28;20486;-45
2021/06/14 09:00:13;;;;;;;5.55;1.90;;;28.30;53.90;;;;;;5065667;28;20053;-46
2021/06/14 09:02:42;;;;;;;4.50;1.90;;;28.40;54.20;;;;;;5071337;28;20045;-47
2021/06/14 09:05:11;;;;;;;3.70;1.70;;;28.50;54.10;;;;;;5064436;28;20095;-45
2021/06/14 09:07:40;;;;;;;9.15;2.17;;;28.30;54.70;;;;;;5069642;28;20151;-45
2021/06/14 09:10:08;;;;;;;4.15;2.28;;;28.40;54.20;;;;;;5058066;28;20517;-45
2021/06/14 09:12:40;;;;;;;5.20;2.92;;;28.20;53.70;;;;;;5054031;28;20048;-46
2021/06/14 09:15:10;;;;;;;5.55;2.15;;;27.90;54.00;;;;;;5059233;28;20049;-46
2021/06/14 09:17:38;;;;;;;6.68;2.20;;;27.90;54.70;;;;;;5054062;28;20040;-44
2021/06/14 09:20:16;;;;;;;4.22;2.83;;;28.10;55.40;;;;;;5037665;28;20052;-44
2021/06/14 09:22:43;;;;;;;5.20;1.65;;;28.30;55.50;;;;;;5039450;28;20056;-45
2021/06/14 09:25:15;;;;;;;13.23;2.85;;;28.40;55.80;;;;;;5065194;28;20161;-45
2021/06/14 09:27:48;;;;;;;6.65;2.08;;;28.50;55.80;;;;;;5070621;28;20058;-45
2021/06/14 09:30:27;;;;;;;4.60;2.15;;;28.70;56.30;;;;;;5065412;28;20045;-44
2021/06/14 09:33:20;;;;;;;4.43;1.70;;;28.70;55.70;;;;;;5051343;28;20056;-44
2021/06/14 09:35:48;;;;;;;3.08;1.48;;;28.60;52.50;;;;;;5058071;28;20048;-45
2021/06/14 09:38:18;;;;;;;4.45;2.22;;;28.60;52.40;;;;;;5068079;28;20045;-45
2021/06/14 09:40:54;;;;;;;5.78;2.33;;;28.30;51.80;;;;;;5048404;28;20040;-45
2021/06/14 09:43:29;;;;;;;3.45;2.05;;;28.30;53.10;;;;;;5051174;28;20055;-44
2021/06/14 09:45:59;;;;;;;7.13;2.25;;;28.10;53.80;;;;;;5068019;28;20449;-44
2021/06/14 09:48:30;;;;;;;4.80;2.15;;;28.00;54.10;;;;;;5067029;28;20068;-47
2021/06/14 09:51:05;;;;;;;3.50;1.70;;;27.90;53.90;;;;;;5033705;28;20052;-45
2021/06/14 09:53:41;;;;;;;4.10;2.03;;;27.90;53.70;;;;;;5049923;28;20045;-47
2021/06/14 09:56:20;;;;;;;7.97;2.95;;;28.10;54.80;;;;;;5067986;28;20056;-44
2021/06/14 09:58:50;;;;;;;4.43;1.50;;;28.20;52.80;;;;;;5080668;28;20136;-45
2021/06/14 10:01:25;;;;;;;3.13;2.13;;;28.20;52.40;;;;;;5069243;28;20447;-44
2021/06/14 10:03:54;;;;;;;;;;;28.20;52.30;;;;;;5047211;28;20053;-44
2021/06/14 10:06:49;;;;;;;4.72;1.60;;;28.30;52.50;;;;;;5069276;28;19924;-45
2021/06/14 10:09:18;;;;;;;3.40;1.50;;;28.40;53.80;;;;;;5058861;28;20056;-44
2021/06/14 10:11:46;;;;;;;3.80;1.80;;;28.40;53.00;;;;;;5055680;28;20044;-44
2021/06/14 10:14:19;;;;;;;4.38;1.63;;;28.30;52.80;;;;;;5060027;28;20147;-44
2021/06/14 10:16:49;;;;;;;4.45;1.98;;;28.00;53.40;;;;;;5033224;28;20085;-45
2021/06/14 10:19:18;;;;;;;6.50;2.25;;;27.90;54.80;;;;;;5054814;28;20049;-45
2021/06/14 10:21:50;;;;;;;4.90;1.40;;;28.00;57.30;;;;;;5032074;28;20064;-45
2021/06/14 10:24:21;;;;;;;7.50;1.98;;;28.20;57.40;;;;;;5055317;28;20160;-45
2021/06/14 10:26:53;;;;;;;5.93;1.90;;;28.20;56.50;;;;;;5073174;28;20052;-45
2021/06/14 10:29:21;;;;;;;5.88;1.95;;;28.10;56.60;;;;;;5059359;28;20049;-45
2021/06/14 10:31:51;;;;;;;5.90;1.27;;;28.20;56.20;;;;;;5071855;28;20508;-45
2021/06/14 10:34:19;;;;;;;4.95;1.73;;;28.20;55.30;;;;;;5059582;28;20131;-45
2021/06/14 10:36:53;;;;;;;2.65;1.50;;;28.20;54.80;;;;;;5071811;28;20075;-45
2021/06/14 10:39:25;;;;;;;4.72;1.50;;;28.00;53.70;;;;;;5059196;28;20049;-45
2021/06/14 10:41:53;;;;;;;6.07;2.58;;;28.00;54.30;;;;;;5071739;28;20053;-45
2021/06/14 10:44:21;;;;;;;4.93;1.65;;;27.90;55.40;;;;;;5059121;28;20529;-48
2021/06/14 10:46:49;;;;;;;4.85;1.60;;;28.00;55.10;;;;;;5055264;28;20074;-45
2021/06/14 10:49:18;;;;;;;3.83;1.60;;;28.10;54.40;;;;;;5042436;28;20049;-47
2021/06/14 10:52:04;;;;;;;2.83;1.50;;;28.10;54.50;;;;;;5038872;28;20083;-45
2021/06/14 10:54:43;;;;;;;3.45;1.75;;;28.10;54.20;;;;;;5041478;28;20112;-45
2021/06/14 10:57:12;;;;;;;4.38;1.77;;;28.00;54.10;;;;;;5072018;28;20134;-46
2021/06/14 10:59:45;;;;;;;4.93;2.15;;;27.90;53.90;;;;;;5076279;28;20045;-45
2021/06/14 11:02:14;;;;;;;2.53;1.60;;;27.90;54.80;;;;;;5072392;28;20057;-48
2021/06/14 11:04:42;;;;;;;3.30;1.63;;;28.00;55.50;;;;;;5057956;28;20068;-47
2021/06/14 11:07:10;;;;;;;4.35;1.83;;;28.00;55.60;;;;;;5047356;28;20522;-47
2021/06/14 11:09:52;;;;;;;8.45;1.95;;;27.90;55.20;;;;;;5073212;28;20514;-44
2021/06/14 11:12:29;;;;;;;5.25;1.90;;;27.90;55.80;;;;;;5069746;28;20056;-45
2021/06/14 11:15:08;;;;;;;6.07;1.55;;;27.80;54.80;;;;;;5060420;28;20105;-45
2021/06/14 11:17:37;;;;;;;6.13;1.58;;;27.80;55.60;;;;;;5034100;28;20045;-48
2021/06/14 11:20:12;;;;;;;3.63;2.17;;;27.80;54.50;;;;;;5028181;28;20044;-45
2021/06/14 11:22:42;;;;;;;4.47;1.40;;;27.70;54.50;;;;;;5067782;28;20040;-49
2021/06/14 11:25:30;;;;;;;4.75;1.60;;;27.50;55.80;;;;;;5067874;28;20064;-46
2021/06/14 11:27:59;;;;;;;7.18;2.13;;;27.30;55.60;;;;;;5041176;28;20374;-48
2021/06/14 11:31:19;;;;;;;3.97;1.55;;;27.30;55.20;;;;;;5077563;28;20052;-45
2021/06/14 11:33:48;;;;;;;3.22;1.80;;;27.20;56.10;;;;;;5040500;28;20042;-49
2021/06/14 11:36:19;;;;;;;7.07;1.80;;;27.20;56.70;;;;;;5044935;28;20053;-46
2021/06/14 11:38:48;;;;;;;2.78;2.05;;;27.30;56.60;;;;;;5063101;28;20073;-45
2021/06/14 11:41:31;;;;;;;2.65;1.40;;;27.40;56.80;;;;;;5049405;28;20048;-47
2021/06/14 11:44:19;;;;;;;2.75;1.45;;;27.40;55.90;;;;;;5059868;28;20055;-49
2021/06/14 11:46:48;;;;;;;5.38;2.25;;;27.40;55.90;;;;;;5046395;28;20061;-46
2021/06/14 11:49:16;;;;;;;6.35;1.65;;;27.40;55.40;;;;;;5052298;28;20483;-46
2021/06/14 11:51:44;;;;;;;6.75;1.83;;;27.40;55.40;;;;;;5046227;28;20484;-45
2021/06/14 11:54:16;;;;;;;4.35;2.63;;;27.20;54.40;;;;;;5031732;28;20065;-45
2021/06/14 11:56:58;;;;;;;3.47;1.85;;;27.10;53.80;;;;;;5031247;28;20050;-50
2021/06/14 11:59:35;;;;;;;2.78;1.60;;;27.10;55.00;;;;;;5056299;28;20091;-47
2021/06/14 12:02:25;;;;;;;3.65;1.58;;;27.00;55.40;;;;;;5071057;28;20200;-47
2021/06/14 12:04:58;;;;;;;4.45;1.88;;;27.00;55.30;;;;;;5042313;28;20075;-47
2021/06/14 12:07:34;;;;;;;2.70;1.63;;;26.90;55.90;;;;;;5053824;28;20052;-45
2021/06/14 12:10:13;;;;;;;5.95;2.03;;;26.90;56.20;;;;;;5065611;28;20075;-47
2021/06/14 12:12:45;;;;;;;3.78;1.90;;;26.80;55.40;;;;;;5069418;28;20602;-49
2021/06/14 12:15:14;;;;;;;5.45;2.40;;;27.00;56.00;;;;;;5047554;28;20498;-46
2021/06/14 12:17:44;;;;;;;6.40;1.98;;;27.00;57.00;;;;;;5053179;28;20045;-46
2021/06/14 12:20:12;;;;;;;4.65;2.17;;;27.10;56.40;;;;;;5047603;28;20049;-47
2021/06/14 12:22:41;;;;;;;3.65;1.63;;;27.10;55.70;;;;;;5052662;28;20059;-47
2021/06/14 12:25:13;;;;;;;4.93;3.00;;;27.10;55.00;;;;;;5053833;28;20045;-46
2021/06/14 12:27:41;;;;;;;4.85;3.22;;;27.00;54.90;;;;;;5039429;28;20064;-46
2021/06/14 12:30:11;;;;;;;5.10;3.13;;;27.10;54.30;;;;;;5063901;28;20052;-51
2021/06/14 12:32:39;;;;;;;6.32;3.67;;;27.00;54.40;;;;;;5052859;28;20394;-45
2021/06/14 12:35:10;;;;;;;4.35;2.75;;;26.90;55.10;;;;;;5056920;28;20040;-49
2021/06/14 12:37:38;;;;;;;11.82;9.13;;;27.00;55.20;;;;;;5037391;28;20040;-46
2021/06/14 12:40:07;;;;;;;12.90;9.02;;;26.90;55.60;;;;;;5040476;28;20052;-47
2021/06/14 12:42:36;;;;;;;6.75;3.92;;;26.80;56.10;;;;;;5054335;28;20049;-48
2021/06/14 12:45:06;;;;;;;4.63;2.47;;;26.80;55.40;;;;;;5047989;28;20116;-46
2021/06/14 12:47:35;;;;;;;4.57;2.50;;;26.80;55.40;;;;;;5072407;28;20475;-45
2021/06/14 12:50:03;;;;;;;5.07;2.92;;;26.80;56.30;;;;;;5064184;28;20419;-45
2021/06/14 12:52:32;;;;;;;5.13;2.80;;;26.90;56.60;;;;;;5071645;28;20090;-45
2021/06/14 12:55:00;;;;;;;9.32;5.13;;;26.80;54.90;;;;;;5046838;28;20094;-46
2021/06/14 12:57:39;;;;;;;7.45;5.10;;;26.70;55.30;;;;;;5055299;28;21662;-45
2021/06/14 13:00:13;;;;;;;10.30;6.40;;;26.60;56.60;;;;;;5058123;28;20076;-46
2021/06/14 13:02:42;;;;;;;4.88;3.45;;;26.70;57.40;;;;;;5055530;28;20036;-44
2021/06/14 13:05:14;;;;;;;10.27;5.88;;;26.60;56.40;;;;;;5059873;28;20088;-46
2021/06/14 13:07:59;;;;;;;7.88;4.20;;;26.60;56.10;;;;;;5054693;28;20394;-48